Time;durP1;ratioP1;P1;durP2;ratioP2;P2;SDS_P1;SDS_P2;PMS_P1;PMS_P2;Temp;Humidity;BMP_temperature;BMP_pressure;BME280_temperature;BME280_humidity;BME280_pressure;Samples;Min_cycle;Max_cycle;Signal;HPM_P1;HPM_P2
2023/03/28 00:01:05;;;;;;;8.88;5.32;;;;;;;;;;4991099;28;20033;-73
2023/03/28 00:03:34;;;;;;;10.15;5.63;;;;;;;;;;4990825;28;20026;-75
2023/03/28 00:06:00;;;;;;;13.65;5.95;;;;;;;;;;4990483;28;20030;-72
2023/03/28 00:08:27;;;;;;;9.57;5.53;;;;;;;;;;4991024;28;20033;-75
2023/03/28 00:11:08;;;;;;;10.23;5.50;;;;;;;;;;4991073;28;20054;-74
2023/03/28 00:13:35;;;;;;;10.63;5.75;;;;;;;;;;4990892;28;20034;-72
2023/03/28 00:16:05;;;;;;;13.70;6.03;;;;;;;;;;4991185;28;20027;-73
2023/03/28 00:18:37;;;;;;;12.45;6.07;;;;;;;;;;4991099;28;20553;-75
2023/03/28 00:21:06;;;;;;;10.45;5.90;;;;;;;;;;5005974;28;20052;-75
2023/03/28 00:23:32;;;;;;;10.43;6.15;;;;;;;;;;4989885;28;20035;-74
2023/03/28 00:26:06;;;;;;;12.23;6.25;;;;;;;;;;4991035;28;20568;-76
2023/03/28 00:28:34;;;;;;;14.05;7.03;;;;;;;;;;4990944;28;20026;-76
2023/03/28 00:31:07;;;;;;;16.50;7.80;;;;;;;;;;5005828;28;20118;-76
2023/03/28 00:33:32;;;;;;;18.73;9.18;;;;;;;;;;4990750;28;20367;-74
2023/03/28 00:35:58;;;;;;;16.15;7.50;;;;;;;;;;4990659;28;20026;-74
2023/03/28 00:38:23;;;;;;;16.65;7.55;;;;;;;;;;4990600;28;20117;-76
2023/03/28 00:40:49;;;;;;;15.13;7.15;;;;;;;;;;4990623;28;20042;-76
2023/03/28 00:43:14;;;;;;;12.43;6.85;;;;;;;;;;5005603;28;20112;-74
2023/03/28 00:45:41;;;;;;;15.65;7.47;;;;;;;;;;4990272;28;20029;-75
2023/03/28 00:48:12;;;;;;;15.85;7.47;;;;;;;;;;4990652;28;20502;-73
2023/03/28 00:50:45;;;;;;;15.27;7.38;;;;;;;;;;5005523;28;20122;-76
2023/03/28 00:53:32;;;;;;;11.32;6.65;;;;;;;;;;4990584;28;20050;-76
2023/03/28 00:56:04;;;;;;;14.25;7.25;;;;;;;;;;4990222;28;20030;-73
2023/03/28 00:58:32;;;;;;;11.07;6.20;;;;;;;;;;5005307;28;20112;-73
2023/03/28 01:00:58;;;;;;;12.73;6.00;;;;;;;;;;4990323;28;20027;-74
2023/03/28 01:03:29;;;;;;;13.70;6.22;;;;;;;;;;4990348;28;20033;-77
2023/03/28 01:05:56;;;;;;;11.15;6.22;;;;;;;;;;4990202;28;20026;-73
2023/03/28 01:08:28;;;;;;;11.05;5.88;;;;;;;;;;4990960;28;20109;-73
2023/03/28 01:10:53;;;;;;;10.65;5.38;;;;;;;;;;5008969;28;20494;-75
2023/03/28 01:13:25;;;;;;;11.40;5.72;;;;;;;;;;4993738;28;20485;-73
2023/03/28 01:15:51;;;;;;;10.93;5.90;;;;;;;;;;4993731;28;20062;-74
2023/03/28 01:18:21;;;;;;;10.30;5.65;;;;;;;;;;4993856;28;20065;-71
2023/03/28 01:21:05;;;;;;;12.23;6.10;;;;;;;;;;5008744;28;20121;-72
2023/03/28 01:24:20;;;;;;;9.80;5.68;;;;;;;;;;4993668;28;20035;-72
2023/03/28 01:26:51;;;;;;;10.20;6.00;;;;;;;;;;4993586;28;20026;-73
2023/03/28 01:29:44;;;;;;;10.45;5.95;;;;;;;;;;4992339;28;20022;-73
2023/03/28 01:32:37;;;;;;;10.20;5.47;;;;;;;;;;4993563;28;20030;-73
2023/03/28 01:35:05;;;;;;;10.13;5.60;;;;;;;;;;4993617;28;20030;-72
2023/03/28 01:37:55;;;;;;;12.18;6.45;;;;;;;;;;5008320;28;20022;-74
2023/03/28 01:40:48;;;;;;;10.43;5.20;;;;;;;;;;4992171;28;20038;-73
2023/03/28 01:43:47;;;;;;;10.18;5.07;;;;;;;;;;4993429;28;20030;-73
2023/03/28 01:46:22;;;;;;;9.82;5.15;;;;;;;;;;4993108;28;20038;-72
2023/03/28 01:49:06;;;;;;;8.32;4.72;;;;;;;;;;4993203;28;20035;-75
2023/03/28 01:51:53;;;;;;;8.40;4.47;;;;;;;;;;5008168;28;20038;-73
2023/03/28 01:54:42;;;;;;;7.35;3.97;;;;;;;;;;4991877;28;20030;-72
2023/03/28 01:57:30;;;;;;;6.40;3.72;;;;;;;;;;4993055;28;20019;-72
2023/03/28 02:00:11;;;;;;;7.03;3.75;;;;;;;;;;4993412;28;20153;-73
2023/03/28 02:02:48;;;;;;;8.20;4.20;;;;;;;;;;4993025;28;20030;-75
2023/03/28 02:05:18;;;;;;;8.88;3.78;;;;;;;;;;4991723;28;20034;-72
2023/03/28 02:07:44;;;;;;;7.47;3.90;;;;;;;;;;4992541;28;20109;-74
2023/03/28 02:10:12;;;;;;;7.32;3.58;;;;;;;;;;4992837;28;20292;-74
2023/03/28 02:12:44;;;;;;;7.88;3.90;;;;;;;;;;4993018;28;20023;-73
2023/03/28 02:15:13;;;;;;;8.20;3.63;;;;;;;;;;4992546;28;20421;-74
2023/03/28 02:17:43;;;;;;;7.32;3.58;;;;;;;;;;4991331;28;20038;-72
2023/03/28 02:20:14;;;;;;;7.50;4.17;;;;;;;;;;4992445;28;20042;-73
2023/03/28 02:22:55;;;;;;;9.70;3.38;;;;;;;;;;4992552;28;20037;-73
2023/03/28 02:25:21;;;;;;;7.20;3.65;;;;;;;;;;4992670;28;20030;-72
2023/03/28 02:27:51;;;;;;;7.43;3.50;;;;;;;;;;4992346;28;20026;-72
2023/03/28 02:30:18;;;;;;;6.45;3.60;;;;;;;;;;4992503;28;20029;-72
2023/03/28 02:32:48;;;;;;;8.10;3.80;;;;;;;;;;5007452;28;20476;-72
2023/03/28 02:35:15;;;;;;;6.50;3.75;;;;;;;;;;4992569;28;20025;-74
2023/03/28 02:37:47;;;;;;;8.02;3.60;;;;;;;;;;4992200;28;20057;-74
2023/03/28 02:40:34;;;;;;;7.40;3.42;;;;;;;;;;4992194;28;20026;-73
2023/03/28 02:43:29;;;;;;;8.77;3.92;;;;;;;;;;4992087;28;20054;-72
2023/03/28 02:45:57;;;;;;;7.13;3.53;;;;;;;;;;4992298;28;20433;-73
2023/03/28 02:48:52;;;;;;;11.55;3.60;;;;;;;;;;4991925;28;20065;-73
2023/03/28 02:51:39;;;;;;;8.38;3.60;;;;;;;;;;4987073;28;20035;-72
2023/03/28 02:54:16;;;;;;;8.13;3.42;;;;;;;;;;4992202;28;20022;-72
2023/03/28 02:56:49;;;;;;;8.23;3.75;;;;;;;;;;5006838;28;20076;-72
2023/03/28 02:59:22;;;;;;;8.02;3.50;;;;;;;;;;5006993;28;20080;-72
2023/03/28 03:01:49;;;;;;;6.03;3.45;;;;;;;;;;4991856;28;20022;-72
2023/03/28 03:04:16;;;;;;;10.02;3.65;;;;;;;;;;4990436;28;20034;-72
2023/03/28 03:06:44;;;;;;;7.60;3.45;;;;;;;;;;4991645;28;20062;-71
2023/03/28 03:09:10;;;;;;;8.70;3.95;;;;;;;;;;4991858;28;20386;-72
2023/03/28 03:11:35;;;;;;;6.55;3.70;;;;;;;;;;4991776;28;20473;-72
2023/03/28 03:14:01;;;;;;;7.78;3.88;;;;;;;;;;4991787;28;20375;-72
2023/03/28 03:16:28;;;;;;;7.38;3.47;;;;;;;;;;4991526;28;20034;-73
2023/03/28 03:18:54;;;;;;;6.70;3.55;;;;;;;;;;4991629;28;20034;-72
2023/03/28 03:21:20;;;;;;;7.22;3.80;;;;;;;;;;4991534;28;20474;-72
2023/03/28 03:23:46;;;;;;;7.60;3.72;;;;;;;;;;4991539;28;20034;-72
2023/03/28 03:26:11;;;;;;;7.80;3.92;;;;;;;;;;4991583;28;20027;-72
2023/03/28 03:28:36;;;;;;;7.18;3.70;;;;;;;;;;4991387;28;20031;-71
2023/03/28 03:31:02;;;;;;;7.95;3.60;;;;;;;;;;4990732;28;20025;-72
2023/03/28 03:33:27;;;;;;;6.82;3.80;;;;;;;;;;4991516;28;20034;-72
2023/03/28 03:35:53;;;;;;;9.13;4.18;;;;;;;;;;4991201;28;20061;-72
2023/03/28 03:38:18;;;;;;;8.27;4.00;;;;;;;;;;4989770;28;20034;-72
2023/03/28 03:40:44;;;;;;;7.70;3.90;;;;;;;;;;4991340;28;20022;-73
2023/03/28 03:43:10;;;;;;;7.43;3.92;;;;;;;;;;4991180;28;20038;-73
2023/03/28 03:45:36;;;;;;;7.38;3.72;;;;;;;;;;4991246;28;20476;-72
2023/03/28 03:48:02;;;;;;;7.03;4.03;;;;;;;;;;4991132;28;20535;-73
2023/03/28 03:50:28;;;;;;;6.30;3.67;;;;;;;;;;4991150;28;20616;-74
2023/03/28 03:52:53;;;;;;;6.90;3.97;;;;;;;;;;4990970;28;20105;-76
2023/03/28 03:55:19;;;;;;;5.72;3.58;;;;;;;;;;4990868;28;20111;-75
2023/03/28 03:57:45;;;;;;;6.40;3.58;;;;;;;;;;4990985;28;20116;-75
2023/03/28 04:00:11;;;;;;;7.38;3.90;;;;;;;;;;4990959;28;20042;-72
2023/03/28 04:02:38;;;;;;;6.82;3.90;;;;;;;;;;4990957;28;20031;-76
2023/03/28 04:05:04;;;;;;;8.93;4.03;;;;;;;;;;4991679;28;20026;-77
2023/03/28 04:07:31;;;;;;;7.38;3.65;;;;;;;;;;4989516;28;20045;-75
2023/03/28 04:09:57;;;;;;;7.60;4.15;;;;;;;;;;4991127;28;20054;-75
2023/03/28 04:12:22;;;;;;;7.18;3.72;;;;;;;;;;4991042;28;20062;-75
2023/03/28 04:14:47;;;;;;;8.60;3.90;;;;;;;;;;4990647;28;20042;-72
2023/03/28 04:17:14;;;;;;;7.05;3.85;;;;;;;;;;4990645;28;20102;-72
2023/03/28 04:19:40;;;;;;;10.50;4.28;;;;;;;;;;4990974;28;20026;-72
2023/03/28 04:22:07;;;;;;;7.07;3.58;;;;;;;;;;4990861;28;20099;-72
2023/03/28 04:24:35;;;;;;;6.72;3.83;;;;;;;;;;4990737;28;20045;-73
2023/03/28 04:27:02;;;;;;;7.53;3.40;;;;;;;;;;4990568;28;20042;-72
2023/03/28 04:29:30;;;;;;;9.45;3.65;;;;;;;;;;4990654;28;20482;-72
2023/03/28 04:31:57;;;;;;;6.70;3.60;;;;;;;;;;4989327;28;20659;-72
2023/03/28 04:34:28;;;;;;;8.02;3.70;;;;;;;;;;4989428;28;20031;-74
2023/03/28 04:36:55;;;;;;;;;;;;;;;;;;4991100;28;20057;-73
2023/03/28 04:39:21;;;;;;;7.65;3.38;;;;;;;;;;4990528;28;19924;-74
2023/03/28 04:41:46;;;;;;;7.10;3.40;;;;;;;;;;4990778;28;20026;-75
2023/03/28 04:44:12;;;;;;;8.63;3.47;;;;;;;;;;4994225;28;20029;-73
2023/03/28 04:46:37;;;;;;;7.85;3.63;;;;;;;;;;4994322;28;20445;-74
2023/03/28 04:49:03;;;;;;;6.72;3.67;;;;;;;;;;4994304;28;20029;-73
2023/03/28 04:51:28;;;;;;;9.10;3.47;;;;;;;;;;4994168;28;20054;-73
2023/03/28 04:53:54;;;;;;;8.70;3.60;;;;;;;;;;4994381;28;20531;-73
2023/03/28 04:56:21;;;;;;;7.05;3.80;;;;;;;;;;4994262;28;20030;-74
2023/03/28 04:58:46;;;;;;;6.70;3.45;;;;;;;;;;4994056;28;20022;-73
2023/03/28 05:01:12;;;;;;;6.63;3.80;;;;;;;;;;4994199;28;20093;-74
2023/03/28 05:03:37;;;;;;;6.65;3.42;;;;;;;;;;4993848;28;20389;-73
2023/03/28 05:06:04;;;;;;;7.05;3.90;;;;;;;;;;4993870;28;20110;-73
2023/03/28 05:08:31;;;;;;;6.95;4.15;;;;;;;;;;5008956;28;20026;-74
2023/03/28 05:10:57;;;;;;;7.78;4.00;;;;;;;;;;5009017;28;20041;-72
2023/03/28 05:13:22;;;;;;;8.75;3.80;;;;;;;;;;4993906;28;20030;-72
2023/03/28 05:15:47;;;;;;;7.25;3.90;;;;;;;;;;4993880;28;20112;-72
2023/03/28 05:18:14;;;;;;;8.55;3.60;;;;;;;;;;4993830;28;20042;-73
2023/03/28 05:20:40;;;;;;;7.10;3.60;;;;;;;;;;4993679;28;20034;-73
2023/03/28 05:23:05;;;;;;;7.55;4.05;;;;;;;;;;4993610;28;20034;-73
2023/03/28 05:25:31;;;;;;;6.55;3.70;;;;;;;;;;4993662;28;20033;-72
2023/03/28 05:27:57;;;;;;;9.55;4.10;;;;;;;;;;4992513;28;20413;-72
2023/03/28 05:30:22;;;;;;;9.23;3.85;;;;;;;;;;4974169;28;20026;-72
2023/03/28 05:32:47;;;;;;;6.82;3.38;;;;;;;;;;4974139;28;20035;-73
2023/03/28 05:35:14;;;;;;;8.88;3.33;;;;;;;;;;4974010;28;20037;-72
2023/03/28 05:37:40;;;;;;;5.88;3.40;;;;;;;;;;4973698;28;20089;-72
2023/03/28 05:40:09;;;;;;;6.45;3.50;;;;;;;;;;4972522;28;20419;-72
2023/03/28 05:42:35;;;;;;;7.72;3.42;;;;;;;;;;4973943;28;20090;-72
2023/03/28 05:45:01;;;;;;;6.80;3.47;;;;;;;;;;4973870;28;20042;-72
2023/03/28 05:47:27;;;;;;;4.80;3.05;;;;;;;;;;4973814;28;20030;-74
2023/03/28 05:49:52;;;;;;;5.65;2.90;;;;;;;;;;4973802;28;20417;-74
2023/03/28 05:52:17;;;;;;;6.78;2.88;;;;;;;;;;4973584;28;20034;-75
2023/03/28 05:54:43;;;;;;;6.63;3.05;;;;;;;;;;4972902;28;20428;-72
2023/03/28 05:57:08;;;;;;;5.93;3.22;;;;;;;;;;4972112;28;20027;-71
2023/03/28 05:59:34;;;;;;;6.43;3.28;;;;;;;;;;4988365;28;20039;-73
2023/03/28 06:02:02;;;;;;;5.65;3.30;;;;;;;;;;4973532;28;20023;-72
2023/03/28 06:04:27;;;;;;;6.00;2.90;;;;;;;;;;4973432;28;20030;-72
2023/03/28 06:06:52;;;;;;;7.05;3.22;;;;;;;;;;4973554;28;20030;-74
2023/03/28 06:09:18;;;;;;;8.20;3.25;;;;;;;;;;4973304;28;20030;-72
2023/03/28 06:11:43;;;;;;;5.63;3.08;;;;;;;;;;4973531;28;20313;-72
2023/03/28 06:14:09;;;;;;;6.68;3.22;;;;;;;;;;4973151;28;20065;-74
2023/03/28 06:16:36;;;;;;;6.20;3.17;;;;;;;;;;4971979;28;20038;-72
2023/03/28 06:19:02;;;;;;;11.63;3.60;;;;;;;;;;4972885;28;20110;-73
2023/03/28 06:21:27;;;;;;;13.18;3.55;;;;;;;;;;4973138;28;20399;-72
2023/03/28 06:23:53;;;;;;;11.52;3.30;;;;;;;;;;4973212;28;20494;-72
2023/03/28 06:26:18;;;;;;;7.10;3.20;;;;;;;;;;4973391;28;20610;-73
2023/03/28 06:28:44;;;;;;;4.55;2.88;;;;;;;;;;4972996;28;20031;-71
2023/03/28 06:31:13;;;;;;;5.10;2.80;;;;;;;;;;4973004;28;20450;-73
2023/03/28 06:33:40;;;;;;;7.32;2.97;;;;;;;;;;4972927;28;20542;-72
2023/03/28 06:36:09;;;;;;;7.07;3.28;;;;;;;;;;4972800;28;20037;-71
2023/03/28 06:38:35;;;;;;;6.30;3.08;;;;;;;;;;4972611;28;20029;-72
2023/03/28 06:41:01;;;;;;;9.35;3.78;;;;;;;;;;4978498;28;20113;-71
2023/03/28 06:43:26;;;;;;;7.10;3.20;;;;;;;;;;4992173;28;20594;-72
2023/03/28 06:45:52;;;;;;;9.55;3.20;;;;;;;;;;4992081;28;20496;-72
2023/03/28 06:48:17;;;;;;;9.25;3.47;;;;;;;;;;4990701;28;20029;-74
2023/03/28 06:50:49;;;;;;;10.40;3.60;;;;;;;;;;4991745;28;20030;-72
2023/03/28 06:53:18;;;;;;;11.02;3.72;;;;;;;;;;4991957;28;20038;-73
2023/03/28 06:55:44;;;;;;;9.85;3.38;;;;;;;;;;4992061;28;20034;-73
2023/03/28 06:58:09;;;;;;;9.70;3.40;;;;;;;;;;4991751;28;20041;-75
2023/03/28 07:00:36;;;;;;;12.85;3.53;;;;;;;;;;5006973;28;20507;-77
2023/03/28 07:03:01;;;;;;;15.30;3.70;;;;;;;;;;4991814;28;20031;-73
2023/03/28 07:05:26;;;;;;;10.32;3.80;;;;;;;;;;4990483;28;20033;-74
2023/03/28 07:07:52;;;;;;;7.95;3.40;;;;;;;;;;4991586;28;20153;-73
2023/03/28 07:10:18;;;;;;;8.02;3.45;;;;;;;;;;4991648;28;20102;-72
2023/03/28 07:12:43;;;;;;;8.52;3.40;;;;;;;;;;4991870;28;20390;-72
2023/03/28 07:15:10;;;;;;;10.38;3.70;;;;;;;;;;4991466;28;20057;-71
2023/03/28 07:17:36;;;;;;;9.23;3.63;;;;;;;;;;4990423;28;20052;-73
2023/03/28 07:20:07;;;;;;;10.65;3.67;;;;;;;;;;4991615;28;20526;-75
2023/03/28 07:22:32;;;;;;;12.60;3.67;;;;;;;;;;4991651;28;20026;-72
2023/03/28 07:24:58;;;;;;;9.23;3.53;;;;;;;;;;4991535;28;20402;-72
2023/03/28 07:27:23;;;;;;;8.27;3.50;;;;;;;;;;4991379;28;20027;-72
2023/03/28 07:29:48;;;;;;;15.00;3.70;;;;;;;;;;4991277;28;20111;-72
2023/03/28 07:32:14;;;;;;;6.55;3.30;;;;;;;;;;5006294;28;20038;-73
2023/03/28 07:34:40;;;;;;;8.65;3.50;;;;;;;;;;4991302;28;20117;-72
2023/03/28 07:37:07;;;;;;;5.65;3.05;;;;;;;;;;4989840;28;20030;-72
2023/03/28 07:39:33;;;;;;;9.43;3.80;;;;;;;;;;4990881;28;20036;-72
2023/03/28 07:41:59;;;;;;;7.60;3.38;;;;;;;;;;4991016;28;20033;-74
2023/03/28 07:44:25;;;;;;;6.80;3.53;;;;;;;;;;4991248;28;20038;-72
2023/03/28 07:46:51;;;;;;;8.57;3.50;;;;;;;;;;4990932;28;20467;-72
2023/03/28 07:49:19;;;;;;;6.55;2.70;;;;;;;;;;4990829;28;20034;-72
2023/03/28 07:51:45;;;;;;;9.85;2.72;;;;;;;;;;4991005;28;20101;-72
2023/03/28 07:54:16;;;;;;;5.88;2.50;;;;;;;;;;4991259;28;20518;-72
2023/03/28 07:56:43;;;;;;;6.35;2.90;;;;;;;;;;4991206;28;20114;-73
2023/03/28 07:59:09;;;;;;;7.47;2.70;;;;;;;;;;4991025;28;20023;-72
2023/03/28 08:01:34;;;;;;;7.10;2.95;;;;;;;;;;4990969;28;20071;-72
2023/03/28 08:03:59;;;;;;;8.00;2.78;;;;;;;;;;4990703;28;20031;-72
2023/03/28 08:06:26;;;;;;;4.53;2.22;;;;;;;;;;4990714;28;20467;-74
2023/03/28 08:08:51;;;;;;;4.95;2.25;;;;;;;;;;4990863;28;20033;-74
2023/03/28 08:11:16;;;;;;;9.57;2.47;;;;;;;;;;4990791;28;20015;-72
2023/03/28 08:13:42;;;;;;;6.57;2.50;;;;;;;;;;4995817;28;20229;-74
2023/03/28 08:16:08;;;;;;;6.00;2.10;;;;;;;;;;4994472;28;20081;-76
2023/03/28 08:18:33;;;;;;;7.40;2.30;;;;;;;;;;4988998;28;20534;-74
2023/03/28 08:21:02;;;;;;;9.32;2.70;;;;;;;;;;5005274;28;20028;-74
2023/03/28 08:23:28;;;;;;;7.80;2.80;;;;;;;;;;4990585;28;20092;-73
2023/03/28 08:26:05;;;;;;;4.85;2.20;;;;;;;;;;4990657;28;20030;-76
2023/03/28 08:28:35;;;;;;;5.50;2.53;;;;;;;;;;5005584;28;20119;-74
2023/03/28 08:31:08;;;;;;;6.35;2.50;;;;;;;;;;4990382;28;20039;-75
2023/03/28 08:33:34;;;;;;;4.47;2.65;;;;;;;;;;4989158;28;20060;-83
2023/03/28 08:35:59;;;;;;;5.35;2.55;;;;;;;;;;4989073;28;20034;-77
2023/03/28 08:38:25;;;;;;;7.00;2.60;;;;;;;;;;4988801;28;20038;-75
2023/03/28 08:41:01;;;;;;;4.60;2.50;;;;;;;;;;5005452;28;20069;-75
2023/03/28 08:44:03;;;;;;;6.85;2.78;;;;;;;;;;4990307;28;20114;-75
2023/03/28 08:46:30;;;;;;;5.45;2.55;;;;;;;;;;4990585;28;20102;-78
2023/03/28 08:49:03;;;;;;;7.80;2.30;;;;;;;;;;4989267;28;20057;-82
2023/03/28 08:51:39;;;;;;;6.13;2.78;;;;;;;;;;4988900;28;20034;-79
2023/03/28 08:54:27;;;;;;;9.25;2.50;;;;;;;;;;4989145;28;20035;-79
2023/03/28 08:56:55;;;;;;;11.10;2.80;;;;;;;;;;4987354;28;20545;-78
2023/03/28 08:59:39;;;;;;;8.00;2.70;;;;;;;;;;4990413;28;20018;-80
2023/03/28 09:02:20;;;;;;;6.57;2.70;;;;;;;;;;4988977;28;20035;-75
2023/03/28 09:04:46;;;;;;;6.22;2.70;;;;;;;;;;4990184;28;20034;-74
2023/03/28 09:07:41;;;;;;;5.15;2.42;;;;;;;;;;4989807;28;20022;-77
2023/03/28 09:10:17;;;;;;;6.20;2.50;;;;;;;;;;4986743;28;20645;-75
2023/03/28 09:13:27;;;;;;;7.85;2.30;;;;;;;;;;4989242;28;20038;-78
2023/03/28 09:16:07;;;;;;;6.05;2.50;;;;;;;;;;4930988;29;20399;-77
2023/03/28 09:18:44;;;;;;;3.95;2.00;;;;;;;;;;4930806;29;20067;-76
2023/03/28 09:21:26;;;;;;;7.32;2.35;;;;;;;;;;4973753;28;20124;-81
2023/03/28 09:23:57;;;;;;;6.45;2.03;;;;;;;;;;4990025;28;20030;-75
2023/03/28 09:26:26;;;;;;;4.78;1.90;;;;;;;;;;4988496;28;20033;-71
2023/03/28 09:29:05;;;;;;;4.78;2.00;;;;;;;;;;4990055;28;20512;-77
2023/03/28 09:31:45;;;;;;;3.95;1.75;;;;;;;;;;4993318;28;20026;-75
2023/03/28 09:34:37;;;;;;;3.55;1.52;;;;;;;;;;4991868;28;20510;-75
2023/03/28 09:37:27;;;;;;;5.03;1.73;;;;;;;;;;4985488;28;20027;-75
2023/03/28 09:39:55;;;;;;;4.43;1.80;;;;;;;;;;4993353;28;20026;-75
2023/03/28 09:43:14;;;;;;;5.68;1.80;;;;;;;;;;4993949;28;20026;-75
2023/03/28 09:45:58;;;;;;;3.60;1.80;;;;;;;;;;4975052;28;20057;-74
2023/03/28 09:48:29;;;;;;;4.90;1.77;;;;;;;;;;4995361;28;20058;-75
2023/03/28 09:50:59;;;;;;;3.30;1.60;;;;;;;;;;4991930;28;20058;-74
2023/03/28 09:53:31;;;;;;;6.40;1.77;;;;;;;;;;4993074;28;20030;-78
2023/03/28 09:56:12;;;;;;;3.85;1.80;;;;;;;;;;4989720;28;20030;-76
2023/03/28 09:59:04;;;;;;;5.45;1.80;;;;;;;;;;4991355;28;20105;-74
2023/03/28 10:01:38;;;;;;;3.97;1.50;;;;;;;;;;4988458;28;20050;-75
2023/03/28 10:04:27;;;;;;;4.30;1.45;;;;;;;;;;4997527;28;20084;-80
2023/03/28 10:06:54;;;;;;;2.70;1.30;;;;;;;;;;4981197;28;20026;-79
2023/03/28 10:09:25;;;;;;;3.80;1.30;;;;;;;;;;4992395;28;20029;-81
2023/03/28 10:11:51;;;;;;;3.80;1.60;;;;;;;;;;4992232;28;20022;-74
2023/03/28 10:14:31;;;;;;;4.80;1.52;;;;;;;;;;4991234;28;20038;-75
2023/03/28 10:17:00;;;;;;;;;;;;;;;;;;4991793;28;20449;-76
2023/03/28 10:19:32;;;;;;;5.30;1.20;;;;;;;;;;4991787;28;19913;-76
2023/03/28 10:22:07;;;;;;;2.08;1.00;;;;;;;;;;4992259;28;20030;-74
2023/03/28 10:24:33;;;;;;;2.42;1.02;;;;;;;;;;4993672;28;20061;-80
2023/03/28 10:27:17;;;;;;;3.85;1.20;;;;;;;;;;4992356;28;20048;-78
2023/03/28 10:29:45;;;;;;;3.28;1.00;;;;;;;;;;4992277;28;20062;-79
2023/03/28 10:32:12;;;;;;;2.72;1.02;;;;;;;;;;4992112;28;20416;-74
2023/03/28 10:34:38;;;;;;;2.55;0.98;;;;;;;;;;4991094;28;20023;-75
2023/03/28 10:37:27;;;;;;;2.40;1.15;;;;;;;;;;4990697;28;20033;-74
2023/03/28 10:40:23;;;;;;;2.35;1.00;;;;;;;;;;4992949;28;20486;-74
2023/03/28 10:42:49;;;;;;;2.75;1.00;;;;;;;;;;4995314;28;20667;-74
2023/03/28 10:45:22;;;;;;;3.15;0.98;;;;;;;;;;4996782;28;20113;-74
2023/03/28 10:47:55;;;;;;;4.53;1.20;;;;;;;;;;4992752;28;20034;-74
2023/03/28 10:50:36;;;;;;;2.80;1.20;;;;;;;;;;4993919;28;20037;-74
2023/03/28 10:53:09;;;;;;;4.10;1.20;;;;;;;;;;4993037;28;20041;-76
2023/03/28 10:55:39;;;;;;;5.35;0.70;;;;;;;;;;4989223;28;20428;-77
2023/03/28 10:58:31;;;;;;;2.97;0.90;;;;;;;;;;4991687;28;20026;-77
2023/03/28 11:01:18;;;;;;;2.92;0.90;;;;;;;;;;4991742;28;20500;-73
2023/03/28 11:04:10;;;;;;;3.22;1.05;;;;;;;;;;4991490;28;20589;-81
2023/03/28 11:06:53;;;;;;;3.40;1.05;;;;;;;;;;4991819;28;20677;-78
2023/03/28 11:09:41;;;;;;;3.67;0.90;;;;;;;;;;4997276;28;20038;-75
2023/03/28 11:12:15;;;;;;;2.80;0.85;;;;;;;;;;4992557;28;20035;-77
2023/03/28 11:15:09;;;;;;;1.67;0.70;;;;;;;;;;4991976;28;20469;-75
2023/03/28 11:18:00;;;;;;;1.60;0.70;;;;;;;;;;4991954;28;20048;-73
2023/03/28 11:20:30;;;;;;;3.20;0.98;;;;;;;;;;4989958;28;20023;-78
2023/03/28 11:23:08;;;;;;;3.13;0.73;;;;;;;;;;4989348;28;20045;-76
2023/03/28 11:25:52;;;;;;;2.88;0.85;;;;;;;;;;4990799;28;20369;-76
2023/03/28 11:28:42;;;;;;;1.23;0.70;;;;;;;;;;4990886;28;20116;-72
2023/03/28 11:31:14;;;;;;;2.53;0.70;;;;;;;;;;4991185;28;20029;-76
2023/03/28 11:34:27;;;;;;;2.72;0.80;;;;;;;;;;4990909;28;20041;-79
2023/03/28 11:37:21;;;;;;;2.03;0.68;;;;;;;;;;4991065;28;20031;-73
2023/03/28 11:39:58;;;;;;;2.75;0.73;;;;;;;;;;4991477;28;20026;-75
2023/03/28 11:42:30;;;;;;;1.33;0.80;;;;;;;;;;4989370;28;20039;-73
2023/03/28 11:44:58;;;;;;;4.50;0.75;;;;;;;;;;4978761;28;20030;-73
2023/03/28 11:47:37;;;;;;;2.22;0.70;;;;;;;;;;4990999;28;20027;-72
2023/03/28 11:50:07;;;;;;;1.75;0.68;;;;;;;;;;4990604;28;20022;-74
2023/03/28 11:52:41;;;;;;;4.82;0.82;;;;;;;;;;4994169;28;20018;-73
2023/03/28 11:55:25;;;;;;;4.53;1.00;;;;;;;;;;4991858;28;20450;-71
2023/03/28 11:58:23;;;;;;;2.10;0.90;;;;;;;;;;4990916;28;20061;-72
2023/03/28 12:01:09;;;;;;;2.03;0.70;;;;;;;;;;4978620;28;20120;-72
2023/03/28 12:04:00;;;;;;;3.13;0.80;;;;;;;;;;4989064;28;20520;-71
2023/03/28 12:06:31;;;;;;;4.15;0.90;;;;;;;;;;4991651;28;20555;-71
2023/03/28 12:09:23;;;;;;;2.58;0.80;;;;;;;;;;4990919;28;20088;-70
2023/03/28 12:12:11;;;;;;;3.03;0.88;;;;;;;;;;4981259;28;20434;-72
2023/03/28 12:14:49;;;;;;;2.00;0.68;;;;;;;;;;4978635;28;20452;-72
2023/03/28 12:17:29;;;;;;;3.30;0.80;;;;;;;;;;4992136;28;20172;-72
2023/03/28 12:19:55;;;;;;;3.03;0.82;;;;;;;;;;4989805;28;20088;-71
2023/03/28 12:22:25;;;;;;;2.65;0.80;;;;;;;;;;4995678;28;20053;-74
2023/03/28 12:25:39;;;;;;;2.95;0.60;;;;;;;;;;4989137;28;20069;-74
2023/03/28 12:28:18;;;;;;;1.80;0.60;;;;;;;;;;4990716;28;20030;-72
2023/03/28 12:31:00;;;;;;;1.88;0.75;;;;;;;;;;4990636;28;20061;-73
2023/03/28 12:33:57;;;;;;;3.05;0.90;;;;;;;;;;4990343;28;20058;-72
2023/03/28 12:36:51;;;;;;;2.10;0.75;;;;;;;;;;4991134;28;20034;-72
2023/03/28 12:39:33;;;;;;;2.03;0.63;;;;;;;;;;4988626;28;20437;-71
2023/03/28 12:42:02;;;;;;;1.63;0.70;;;;;;;;;;4991520;28;20555;-71
2023/03/28 12:44:37;;;;;;;3.40;0.60;;;;;;;;;;4990735;28;20033;-74
2023/03/28 12:47:12;;;;;;;2.22;0.50;;;;;;;;;;4990357;28;20049;-74
2023/03/28 12:50:06;;;;;;;2.97;0.70;;;;;;;;;;4990341;28;20625;-71
2023/03/28 12:52:35;;;;;;;2.33;0.77;;;;;;;;;;4990171;28;20026;-70
2023/03/28 12:55:06;;;;;;;1.48;0.60;;;;;;;;;;4990324;28;20054;-73
2023/03/28 12:57:42;;;;;;;1.52;0.60;;;;;;;;;;4989188;28;20061;-71
2023/03/28 13:00:10;;;;;;;1.83;0.50;;;;;;;;;;4992165;28;20028;-72
2023/03/28 13:03:06;;;;;;;1.05;0.50;;;;;;;;;;4988725;28;20500;-77
2023/03/28 13:05:44;;;;;;;2.17;0.70;;;;;;;;;;4993947;28;20037;-72
2023/03/28 13:08:26;;;;;;;1.77;0.60;;;;;;;;;;4993890;28;20613;-72
2023/03/28 13:11:00;;;;;;;0.93;0.40;;;;;;;;;;4993939;28;20508;-72
2023/03/28 13:14:03;;;;;;;2.03;0.45;;;;;;;;;;4993916;28;20030;-72
2023/03/28 13:16:46;;;;;;;0.70;0.45;;;;;;;;;;4993448;28;20532;-71
2023/03/28 13:19:14;;;;;;;0.77;0.43;;;;;;;;;;4993482;28;20089;-72
2023/03/28 13:21:40;;;;;;;1.75;0.60;;;;;;;;;;4993196;28;20037;-74
2023/03/28 13:24:26;;;;;;;0.85;0.47;;;;;;;;;;4994299;28;20031;-74
2023/03/28 13:27:19;;;;;;;1.70;0.43;;;;;;;;;;4993656;28;20092;-72
2023/03/28 13:29:47;;;;;;;1.85;0.60;;;;;;;;;;4984922;28;20096;-72
2023/03/28 13:32:16;;;;;;;1.75;0.40;;;;;;;;;;4993190;28;20077;-70
2023/03/28 13:35:05;;;;;;;0.93;0.30;;;;;;;;;;4993528;28;20033;-73
2023/03/28 13:37:48;;;;;;;1.77;0.55;;;;;;;;;;4985522;28;20681;-72
2023/03/28 13:40:49;;;;;;;1.05;0.60;;;;;;;;;;4993040;28;20065;-73
2023/03/28 13:43:27;;;;;;;1.67;0.60;;;;;;;;;;4993940;28;20026;-70
2023/03/28 13:46:00;;;;;;;3.22;0.60;;;;;;;;;;4993133;28;20081;-71
2023/03/28 13:48:33;;;;;;;1.63;0.60;;;;;;;;;;4993253;28;20466;-70
2023/03/28 13:51:01;;;;;;;2.35;0.70;;;;;;;;;;4993127;28;20402;-70
2023/03/28 13:53:31;;;;;;;2.97;0.60;;;;;;;;;;4993469;28;20022;-72
2023/03/28 13:56:32;;;;;;;1.10;0.50;;;;;;;;;;4992693;28;20577;-69
2023/03/28 13:59:02;;;;;;;2.97;0.55;;;;;;;;;;4986034;28;20042;-71
2023/03/28 14:01:43;;;;;;;2.03;0.63;;;;;;;;;;4992838;28;20058;-69
2023/03/28 14:04:15;;;;;;;1.77;0.68;;;;;;;;;;4992778;28;20034;-70
2023/03/28 14:06:43;;;;;;;3.20;0.60;;;;;;;;;;4993185;28;20023;-70
2023/03/28 14:09:33;;;;;;;2.42;0.90;;;;;;;;;;4997754;28;20053;-71
2023/03/28 14:12:12;;;;;;;1.87;0.70;;;;;;;;;;5000719;28;20045;-70
2023/03/28 14:14:44;;;;;;;1.52;0.70;;;;;;;;;;4993074;28;20050;-70
2023/03/28 14:17:13;;;;;;;1.80;0.60;;;;;;;;;;4994117;28;20027;-71
2023/03/28 14:19:44;;;;;;;4.20;0.63;;;;;;;;;;4995638;28;20049;-70
2023/03/28 14:22:20;;;;;;;1.80;0.70;;;;;;;;;;4992614;28;20269;-71
2023/03/28 14:24:50;;;;;;;1.27;0.60;;;;;;;;;;4992741;28;20037;-72
2023/03/28 14:27:28;;;;;;;1.50;0.60;;;;;;;;;;4993017;28;20088;-70
2023/03/28 14:29:55;;;;;;;1.23;0.50;;;;;;;;;;4992431;28;20577;-72
2023/03/28 14:32:30;;;;;;;1.90;0.70;;;;;;;;;;4993563;28;20113;-71
2023/03/28 14:35:18;;;;;;;1.13;0.43;;;;;;;;;;4992658;28;20482;-70
2023/03/28 14:37:50;;;;;;;1.83;0.70;;;;;;;;;;4992283;28;20490;-71
2023/03/28 14:40:36;;;;;;;2.97;0.80;;;;;;;;;;4992160;28;20029;-73
2023/03/28 14:43:03;;;;;;;2.15;0.90;;;;;;;;;;4994181;28;20022;-72
2023/03/28 14:45:32;;;;;;;3.78;1.15;;;;;;;;;;4993334;28;20041;-70
2023/03/28 14:47:58;;;;;;;1.88;0.82;;;;;;;;;;4991806;28;20026;-71
2023/03/28 14:50:29;;;;;;;1.80;0.70;;;;;;;;;;4992323;28;20088;-71
2023/03/28 14:52:59;;;;;;;1.13;0.60;;;;;;;;;;4992036;28;20503;-70
2023/03/28 14:55:26;;;;;;;2.08;0.70;;;;;;;;;;4992305;28;20026;-72
2023/03/28 14:57:53;;;;;;;3.03;1.05;;;;;;;;;;4991939;28;20046;-70
2023/03/28 15:00:26;;;;;;;2.60;1.00;;;;;;;;;;4992540;28;20034;-70
2023/03/28 15:02:52;;;;;;;2.47;1.00;;;;;;;;;;4991568;28;20030;-69
2023/03/28 15:05:20;;;;;;;3.63;1.00;;;;;;;;;;4991638;28;20036;-69
2023/03/28 15:07:55;;;;;;;3.10;1.20;;;;;;;;;;4990250;28;20505;-71
2023/03/28 15:10:24;;;;;;;2.92;1.13;;;;;;;;;;4991709;28;20024;-70
2023/03/28 15:13:04;;;;;;;2.72;1.05;;;;;;;;;;4991663;28;20565;-69
2023/03/28 15:15:52;;;;;;;3.00;1.00;;;;;;;;;;4991166;28;20042;-69